Time;durP1;ratioP1;P1;durP2;ratioP2;P2;SDS_P1;SDS_P2;PMS_P1;PMS_P2;Temp;Humidity;BMP_temperature;BMP_pressure;BME280_temperature;BME280_humidity;BME280_pressure;Samples;Min_cycle;Max_cycle;Signal;HPM_P1;HPM_P2
2021/08/21 00:00:07;;;;;;;39.05;24.50;;;;;;;;;;4359508;32;20194;-80
2021/08/21 00:02:33;;;;;;;36.63;23.48;;;;;;;;;;4359305;32;20659;-79
2021/08/21 00:04:58;;;;;;;40.85;24.35;;;;;;;;;;4359037;32;20182;-79
2021/08/21 00:07:29;;;;;;;38.72;24.37;;;;;;;;;;4359755;32;20166;-79
2021/08/21 00:09:55;;;;;;;44.67;26.05;;;;;;;;;;4359122;33;20154;-79
2021/08/21 00:12:20;;;;;;;41.92;27.00;;;;;;;;;;4359438;32;20167;-80
2021/08/21 00:14:48;;;;;;;45.20;26.23;;;;;;;;;;4358904;33;20205;-81
2021/08/21 00:17:13;;;;;;;47.62;27.60;;;;;;;;;;4359189;32;20648;-81
2021/08/21 00:19:38;;;;;;;37.65;23.58;;;;;;;;;;4358876;33;20278;-80
2021/08/21 00:22:09;;;;;;;42.53;25.45;;;;;;;;;;4359042;32;20159;-80
2021/08/21 00:24:34;;;;;;;41.75;24.23;;;;;;;;;;4359229;33;20155;-79
2021/08/21 00:27:02;;;;;;;47.25;28.42;;;;;;;;;;4359059;33;20192;-80
2021/08/21 00:29:28;;;;;;;35.42;22.50;;;;;;;;;;4359203;33;20278;-81
2021/08/21 00:32:19;;;;;;;38.83;24.27;;;;;;;;;;4359488;33;20167;-80
2021/08/21 00:37:56;;;;;;;42.08;27.52;;;;;;;;;;4364349;32;20204;-81
2021/08/21 00:43:47;;;;;;;40.42;26.05;;;;;;;;;;4354821;33;20151;-80
2021/08/21 00:46:15;;;;;;;44.58;27.83;;;;;;;;;;4362606;32;20182;-79
2021/08/21 00:52:02;;;;;;;55.00;33.00;;;;;;;;;;4346051;33;20178;-77
2021/08/21 00:57:25;;;;;;;53.42;32.72;;;;;;;;;;4350584;33;20273;-81
2021/08/21 00:59:55;;;;;;;66.37;38.17;;;;;;;;;;4362016;32;20177;-81
2021/08/21 01:02:31;;;;;;;61.55;36.00;;;;;;;;;;4354247;33;20163;-80
2021/08/21 01:05:06;;;;;;;49.88;31.20;;;;;;;;;;4366795;32;20151;-80
2021/08/21 01:07:41;;;;;;;57.90;34.47;;;;;;;;;;4367009;32;20212;-81
2021/08/21 01:10:40;;;;;;;63.38;36.85;;;;;;;;;;4361986;33;20213;-80
2021/08/21 01:13:05;;;;;;;47.25;29.60;;;;;;;;;;4359843;33;20221;-80
2021/08/21 01:15:31;;;;;;;57.00;35.22;;;;;;;;;;4361495;32;20160;-79
2021/08/21 01:17:56;;;;;;;53.65;32.67;;;;;;;;;;4362943;32;20464;-80
2021/08/21 01:23:24;;;;;;;47.35;31.20;;;;;;;;;;4362917;32;20162;-79
2021/08/21 01:25:57;;;;;;;39.63;27.77;;;;;;;;;;4361170;32;20156;-79
2021/08/21 01:28:30;;;;;;;48.28;30.30;;;;;;;;;;4361901;32;20272;-80
2021/08/21 01:31:24;;;;;;;53.05;33.58;;;;;;;;;;4361270;32;20173;-79
2021/08/21 01:33:50;;;;;;;32.83;23.75;;;;;;;;;;4374158;32;20174;-79
2021/08/21 01:36:18;;;;;;;31.75;23.38;;;;;;;;;;4361061;33;20159;-79
2021/08/21 01:38:58;;;;;;;38.78;26.92;;;;;;;;;;4360989;32;20190;-79
2021/08/21 01:41:24;;;;;;;33.53;23.35;;;;;;;;;;4373250;32;20170;-79
2021/08/21 01:43:49;;;;;;;32.47;24.02;;;;;;;;;;4361308;32;20452;-79
2021/08/21 01:46:15;;;;;;;38.80;26.67;;;;;;;;;;4361205;32;20612;-79
2021/08/21 01:48:40;;;;;;;43.13;29.83;;;;;;;;;;4360927;33;20225;-79
2021/08/21 01:51:08;;;;;;;42.47;28.73;;;;;;;;;;4361088;32;20542;-80
2021/08/21 01:53:33;;;;;;;40.85;29.30;;;;;;;;;;4348566;33;20155;-80
2021/08/21 01:55:58;;;;;;;30.90;23.25;;;;;;;;;;4360867;32;20607;-79
2021/08/21 01:58:26;;;;;;;31.83;21.83;;;;;;;;;;4361091;32;20601;-80
2021/08/21 02:00:52;;;;;;;40.63;27.00;;;;;;;;;;4362166;32;20607;-80
2021/08/21 02:03:18;;;;;;;41.30;27.92;;;;;;;;;;4373226;32;20159;-80
2021/08/21 02:05:44;;;;;;;32.05;22.55;;;;;;;;;;4362360;32;20132;-80
2021/08/21 02:08:12;;;;;;;39.20;27.27;;;;;;;;;;4360860;32;20178;-80
2021/08/21 02:10:47;;;;;;;;;;;;;;;;;;;;;
2021/08/21 02:16:28;;;;;;;41.78;29.77;;;;;;;;;;4315306;33;20697;-79
2021/08/21 02:19:10;;;;;;;36.00;26.35;;;;;;;;;;4355430;33;20588;-79
2021/08/21 02:21:46;;;;;;;;;;;;;;;;;;;;;
2021/08/21 02:24:51;;;;;;;;;;;;;;;;;;;;;
2021/08/21 02:27:26;;;;;;;46.92;29.77;;;;;;;;;;4359134;32;20178;-80
2021/08/21 02:29:51;;;;;;;39.00;27.05;;;;;;;;;;4362088;32;20246;-80
2021/08/21 02:32:19;;;;;;;42.83;27.98;;;;;;;;;;4359880;33;20166;-80
2021/08/21 02:34:45;;;;;;;53.25;33.28;;;;;;;;;;4366699;32;20529;-80
2021/08/21 02:40:08;;;;;;;48.08;32.45;;;;;;;;;;4353531;33;20193;-80
2021/08/21 02:42:33;;;;;;;56.42;33.95;;;;;;;;;;4371051;32;20173;-80
2021/08/21 02:45:07;;;;;;;48.42;28.77;;;;;;;;;;4362122;32;20210;-79
2021/08/21 02:47:32;;;;;;;44.03;28.83;;;;;;;;;;4360353;32;20194;-79
2021/08/21 02:49:58;;;;;;;65.90;39.13;;;;;;;;;;4360207;32;20186;-80
2021/08/21 02:52:26;;;;;;;43.60;29.45;;;;;;;;;;4348821;33;20162;-80
2021/08/21 02:54:54;;;;;;;54.35;35.17;;;;;;;;;;4360357;32;20228;-80
2021/08/21 02:57:23;;;;;;;41.47;27.33;;;;;;;;;;4360527;32;20189;-80
2021/08/21 03:00:29;;;;;;;50.22;32.00;;;;;;;;;;4360463;32;20260;-80
2021/08/21 03:09:14;;;;;;;49.53;31.67;;;;;;;;;;4361555;32;20189;-80
2021/08/21 03:12:00;;;;;;;42.00;29.70;;;;;;;;;;4344734;33;20185;-79
2021/08/21 03:14:38;;;;;;;36.65;26.37;;;;;;;;;;4360361;32;20166;-80
2021/08/21 03:17:25;;;;;;;31.42;23.55;;;;;;;;;;4355936;32;20525;-80
2021/08/21 03:23:11;;;;;;;29.98;21.77;;;;;;;;;;4329281;33;20203;-79
2021/08/21 03:25:36;;;;;;;36.75;24.83;;;;;;;;;;4316915;33;20159;-79
2021/08/21 03:28:05;;;;;;;38.10;25.20;;;;;;;;;;4342997;33;20202;-79
2021/08/21 03:30:42;;;;;;;;;;;;;;;;;;;;;
2021/08/21 03:33:18;;;;;;;40.85;26.87;;;;;;;;;;4361167;32;20150;-79
2021/08/21 03:42:06;;;;;;;39.05;24.60;;;;;;;;;;4344355;33;20171;-78
2021/08/21 03:44:32;;;;;;;36.63;23.38;;;;;;;;;;4345278;33;20179;-79
2021/08/21 03:47:06;;;;;;;42.83;26.50;;;;;;;;;;4356716;33;20573;-79
2021/08/21 03:49:34;;;;;;;48.25;28.80;;;;;;;;;;4357256;32;20162;-79
2021/08/21 03:52:00;;;;;;;58.90;31.75;;;;;;;;;;4343769;33;20144;-79
2021/08/21 03:54:35;;;;;;;;;;;;;;;;;;;;;
2021/08/21 03:57:01;;;;;;;48.20;28.27;;;;;;;;;;4334643;33;20497;-79
2021/08/21 03:59:37;;;;;;;58.28;30.73;;;;;;;;;;4331909;33;20164;-79
2021/08/21 04:02:21;;;;;;;53.15;29.45;;;;;;;;;;4331724;33;20245;-79
2021/08/21 04:05:10;;;;;;;60.60;31.45;;;;;;;;;;4344977;33;20497;-78
2021/08/21 04:08:00;;;;;;;59.67;31.50;;;;;;;;;;4344512;33;20585;-79
2021/08/21 04:10:35;;;;;;;51.75;28.60;;;;;;;;;;4344251;33;20160;-79
2021/08/21 04:13:03;;;;;;;63.22;32.95;;;;;;;;;;4332583;33;20167;-79
2021/08/21 04:16:08;;;;;;;;;;;;;;;;;;;;;
2021/08/21 04:18:45;;;;;;;52.88;30.55;;;;;;;;;;4328545;33;20265;-79
2021/08/21 04:21:10;;;;;;;82.82;38.55;;;;;;;;;;4330020;33;20144;-79
2021/08/21 04:23:53;;;;;;;81.50;38.65;;;;;;;;;;4341690;33;20214;-78
2021/08/21 04:26:29;;;;;;;72.32;36.92;;;;;;;;;;4329613;33;20168;-78
2021/08/21 04:32:17;;;;;;;76.12;38.58;;;;;;;;;;4268760;33;20222;-79
2021/08/21 04:34:52;;;;;;;65.53;36.40;;;;;;;;;;4341954;33;20203;-78
2021/08/21 04:37:41;;;;;;;67.87;36.97;;;;;;;;;;4341411;33;20238;-78
2021/08/21 04:40:17;;;;;;;64.87;37.58;;;;;;;;;;4330070;33;20167;-78
2021/08/21 04:42:50;;;;;;;66.18;37.03;;;;;;;;;;4343998;33;20178;-80
2021/08/21 04:45:33;;;;;;;78.35;40.03;;;;;;;;;;4331924;33;20243;-79
2021/08/21 04:48:20;;;;;;;54.92;31.37;;;;;;;;;;4343020;33;20182;-79
2021/08/21 04:51:34;;;;;;;83.30;38.08;;;;;;;;;;4356703;32;20182;-79
2021/08/21 04:54:05;;;;;;;60.20;31.73;;;;;;;;;;4301938;33;20172;-80
2021/08/21 05:02:51;;;;;;;60.83;33.28;;;;;;;;;;4345526;33;20595;-78
2021/08/21 05:05:16;;;;;;;76.90;36.55;;;;;;;;;;4336199;33;20194;-79
2021/08/21 05:07:45;;;;;;;69.62;34.75;;;;;;;;;;4345201;33;20592;-79
2021/08/21 05:10:11;;;;;;;84.68;38.38;;;;;;;;;;4356338;32;20163;-78
2021/08/21 05:12:36;;;;;;;75.18;34.13;;;;;;;;;;4345656;33;20154;-79
2021/08/21 05:15:01;;;;;;;73.15;36.35;;;;;;;;;;4345149;33;20167;-78
2021/08/21 05:17:32;;;;;;;67.62;34.47;;;;;;;;;;4340877;33;20175;-78
2021/08/21 05:26:00;;;;;;;71.97;35.60;;;;;;;;;;4347985;33;20615;-78
2021/08/21 05:28:28;;;;;;;66.72;35.17;;;;;;;;;;4358740;33;20521;-78
2021/08/21 05:30:54;;;;;;;64.93;34.65;;;;;;;;;;4347851;33;20174;-78
2021/08/21 05:33:20;;;;;;;70.45;36.00;;;;;;;;;;4346587;33;20221;-76
2021/08/21 05:35:45;;;;;;;53.00;30.98;;;;;;;;;;4358390;33;20163;-78
2021/08/21 05:38:11;;;;;;;57.42;33.40;;;;;;;;;;4347584;33;20161;-79
2021/08/21 05:40:38;;;;;;;63.63;33.03;;;;;;;;;;4360805;32;20179;-80
2021/08/21 05:43:03;;;;;;;62.53;33.40;;;;;;;;;;4363029;32;20126;-79
2021/08/21 05:45:31;;;;;;;69.93;36.78;;;;;;;;;;4361020;32;20185;-79
2021/08/21 05:48:05;;;;;;;68.10;36.47;;;;;;;;;;4361397;32;20178;-79
2021/08/21 05:51:06;;;;;;;58.60;32.42;;;;;;;;;;4357587;33;20202;-79
2021/08/21 05:53:35;;;;;;;51.75;30.33;;;;;;;;;;4361802;33;20193;-79
2021/08/21 05:56:09;;;;;;;66.40;36.90;;;;;;;;;;4360971;32;20194;-78
2021/08/21 05:58:38;;;;;;;54.47;30.90;;;;;;;;;;4361355;32;20209;-79
2021/08/21 06:01:06;;;;;;;58.65;31.90;;;;;;;;;;4362361;32;20185;-78
2021/08/21 06:03:56;;;;;;;68.80;37.30;;;;;;;;;;4361175;33;20585;-78
2021/08/21 06:06:44;;;;;;;53.13;31.42;;;;;;;;;;4301265;33;20172;-79
2021/08/21 06:09:23;;;;;;;;;;;;;;;;;;;;;
2021/08/21 06:12:09;;;;;;;61.58;33.55;;;;;;;;;;4330356;33;20155;-79
2021/08/21 06:14:50;;;;;;;56.10;32.13;;;;;;;;;;4330478;33;20339;-79
2021/08/21 06:20:18;;;;;;;52.40;31.15;;;;;;;;;;4362010;32;20158;-78
2021/08/21 06:23:13;;;;;;;52.47;31.35;;;;;;;;;;4347843;33;20226;-79
2021/08/21 06:25:49;;;;;;;53.72;31.00;;;;;;;;;;4354565;32;20577;-80
2021/08/21 06:28:46;;;;;;;;;;;;;;;;;;;;;
2021/08/21 06:31:12;;;;;;;44.10;27.20;;;;;;;;;;4348053;33;20190;-79
2021/08/21 06:34:13;;;;;;;;;;;;;;;;;;;;;
2021/08/21 06:40:42;;;;;;;44.92;26.27;;;;;;;;;;4335256;33;20603;-80
2021/08/21 06:43:12;;;;;;;41.13;25.05;;;;;;;;;;4321545;33;20202;-80
2021/08/21 06:45:40;;;;;;;45.28;25.80;;;;;;;;;;4347286;33;20538;-79
2021/08/21 06:48:05;;;;;;;42.22;25.27;;;;;;;;;;4359926;33;20162;-79
2021/08/21 06:50:35;;;;;;;39.40;26.17;;;;;;;;;;4360345;32;20197;-78
2021/08/21 06:53:00;;;;;;;40.12;25.75;;;;;;;;;;4347619;33;20156;-78
2021/08/21 06:55:26;;;;;;;39.42;23.65;;;;;;;;;;4347551;33;20182;-79
2021/08/21 06:57:51;;;;;;;37.15;24.10;;;;;;;;;;4347570;33;20193;-80
2021/08/21 07:00:17;;;;;;;33.40;21.70;;;;;;;;;;4347829;33;20206;-79
2021/08/21 07:02:45;;;;;;;31.60;21.73;;;;;;;;;;4347734;33;20191;-78
2021/08/21 07:05:10;;;;;;;35.63;22.52;;;;;;;;;;4360833;33;20139;-80
2021/08/21 07:07:38;;;;;;;31.12;20.45;;;;;;;;;;4347712;32;20235;-79
2021/08/21 07:10:04;;;;;;;32.92;21.52;;;;;;;;;;4359960;32;20159;-79
2021/08/21 07:12:48;;;;;;;33.20;19.85;;;;;;;;;;4360064;32;20494;-79
2021/08/21 07:15:21;;;;;;;29.67;19.00;;;;;;;;;;4362490;32;20162;-80
2021/08/21 07:17:49;;;;;;;29.30;19.58;;;;;;;;;;4359993;32;20201;-79
2021/08/21 07:20:14;;;;;;;32.38;19.52;;;;;;;;;;4347152;32;20620;-79
2021/08/21 07:22:40;;;;;;;25.37;17.55;;;;;;;;;;4347067;33;20185;-79
2021/08/21 07:25:10;;;;;;;24.92;17.00;;;;;;;;;;4359388;32;20217;-78
2021/08/21 07:27:39;;;;;;;23.60;15.80;;;;;;;;;;4358523;32;20174;-79
2021/08/21 07:30:05;;;;;;;23.73;16.42;;;;;;;;;;4355606;33;20171;-78
2021/08/21 07:32:42;;;;;;;22.95;15.77;;;;;;;;;;4359932;32;20169;-77
2021/08/21 07:35:13;;;;;;;25.30;16.67;;;;;;;;;;4347771;33;20166;-79
2021/08/21 07:37:42;;;;;;;20.15;14.65;;;;;;;;;;4345416;33;20193;-80
2021/08/21 07:43:17;;;;;;;21.12;12.82;;;;;;;;;;4349289;32;20241;-78
2021/08/21 07:45:46;;;;;;;20.40;13.75;;;;;;;;;;4344842;33;20273;-80
2021/08/21 07:48:22;;;;;;;;;;;;;;;;;;;;;
2021/08/21 07:51:33;;;;;;;19.87;12.32;;;;;;;;;;4346004;33;20553;-78
2021/08/21 07:53:33;;;;;;;15.85;10.93;;;;;;;;;;4338117;33;20171;-78
2021/08/21 07:56:08;;;;;;;17.50;12.05;;;;;;;;;;4332235;33;20178;-79
2021/08/21 07:58:33;;;;;;;17.83;11.12;;;;;;;;;;4345888;33;20142;-80
2021/08/21 08:00:59;;;;;;;18.45;12.90;;;;;;;;;;4344469;33;20190;-79
2021/08/21 08:03:25;;;;;;;17.33;12.23;;;;;;;;;;4332200;33;20159;-79
2021/08/21 08:06:10;;;;;;;21.75;13.73;;;;;;;;;;4344415;33;20155;-80
2021/08/21 08:08:36;;;;;;;19.60;14.43;;;;;;;;;;4332206;33;20185;-78
2021/08/21 08:11:01;;;;;;;18.90;13.68;;;;;;;;;;4332428;33;20155;-80
2021/08/21 08:13:26;;;;;;;21.80;14.23;;;;;;;;;;4350861;33;20261;-79
2021/08/21 08:15:53;;;;;;;24.10;15.18;;;;;;;;;;4355409;33;20174;-79
2021/08/21 08:18:30;;;;;;;20.62;13.90;;;;;;;;;;4360350;32;20241;-79
2021/08/21 08:21:07;;;;;;;21.92;14.75;;;;;;;;;;4342853;33;20254;-80
2021/08/21 08:23:33;;;;;;;20.30;14.23;;;;;;;;;;4332324;33;20220;-78
2021/08/21 08:26:08;;;;;;;17.80;13.10;;;;;;;;;;4344007;33;20159;-78
2021/08/21 08:28:33;;;;;;;20.58;14.05;;;;;;;;;;4332447;33;20194;-79
2021/08/21 08:30:59;;;;;;;21.55;14.48;;;;;;;;;;4345004;33;20259;-79
2021/08/21 08:33:24;;;;;;;17.37;13.13;;;;;;;;;;4331677;33;20178;-76
2021/08/21 08:35:52;;;;;;;21.15;13.82;;;;;;;;;;4345454;33;20182;-79
2021/08/21 08:38:18;;;;;;;22.33;15.10;;;;;;;;;;4331776;33;20159;-79
2021/08/21 08:40:44;;;;;;;20.55;16.37;;;;;;;;;;4331826;33;20599;-79
2021/08/21 08:43:09;;;;;;;19.30;14.70;;;;;;;;;;4360488;32;20193;-80
2021/08/21 08:45:35;;;;;;;19.85;14.43;;;;;;;;;;4353639;33;20206;-79
2021/08/21 08:48:00;;;;;;;24.50;15.00;;;;;;;;;;4359297;32;20185;-78
2021/08/21 08:50:29;;;;;;;21.45;15.95;;;;;;;;;;4358193;33;20150;-80
2021/08/21 08:53:09;;;;;;;20.02;14.50;;;;;;;;;;4358432;33;20154;-80
2021/08/21 08:55:34;;;;;;;19.62;14.60;;;;;;;;;;4362781;32;20131;-80
2021/08/21 08:58:00;;;;;;;18.50;12.80;;;;;;;;;;4361792;32;20217;-79
2021/08/21 09:00:30;;;;;;;20.60;14.98;;;;;;;;;;4363040;32;20136;-79
2021/08/21 09:02:59;;;;;;;18.77;12.57;;;;;;;;;;4373499;32;20167;-80
2021/08/21 09:05:26;;;;;;;23.52;16.30;;;;;;;;;;4361369;33;20217;-80
2021/08/21 09:07:57;;;;;;;22.95;14.15;;;;;;;;;;4348721;33;20234;-80
2021/08/21 09:10:23;;;;;;;18.40;12.57;;;;;;;;;;4360993;33;20182;-80
2021/08/21 09:13:12;;;;;;;18.08;13.43;;;;;;;;;;4362473;32;20169;-80
2021/08/21 09:15:42;;;;;;;18.12;12.48;;;;;;;;;;4345069;33;20167;-79
2021/08/21 09:18:26;;;;;;;18.60;13.93;;;;;;;;;;4361108;33;20170;-79
2021/08/21 09:20:51;;;;;;;15.70;13.35;;;;;;;;;;4361164;32;20197;-80
2021/08/21 09:23:36;;;;;;;13.30;10.40;;;;;;;;;;4358477;32;20238;-79
2021/08/21 09:26:06;;;;;;;16.92;11.18;;;;;;;;;;4346104;33;20163;-79
2021/08/21 09:28:31;;;;;;;15.32;11.70;;;;;;;;;;4346541;33;20162;-79
2021/08/21 09:31:23;;;;;;;15.65;11.12;;;;;;;;;;4347466;32;20162;-79
2021/08/21 09:33:55;;;;;;;17.35;11.43;;;;;;;;;;4344399;33;20186;-79
2021/08/21 09:36:31;;;;;;;12.68;9.75;;;;;;;;;;4347571;33;20135;-78
2021/08/21 09:38:56;;;;;;;15.18;11.50;;;;;;;;;;4346431;33;20220;-80
2021/08/21 09:41:36;;;;;;;13.60;10.68;;;;;;;;;;4346608;33;20547;-79
2021/08/21 09:44:14;;;;;;;15.73;11.90;;;;;;;;;;4346024;33;20270;-80
2021/08/21 09:47:19;;;;;;;20.50;12.18;;;;;;;;;;4346557;33;20167;-80
2021/08/21 09:49:44;;;;;;;17.65;11.55;;;;;;;;;;4358604;32;20226;-78
2021/08/21 09:52:11;;;;;;;16.08;11.98;;;;;;;;;;4346400;33;20213;-78
2021/08/21 09:54:37;;;;;;;18.42;13.18;;;;;;;;;;4357669;33;20239;-79
2021/08/21 09:57:03;;;;;;;18.05;11.88;;;;;;;;;;4347223;33;20175;-80
2021/08/21 09:59:32;;;;;;;12.70;10.23;;;;;;;;;;4345692;33;20163;-80
2021/08/21 10:02:02;;;;;;;15.52;11.63;;;;;;;;;;4345747;33;20168;-80
2021/08/21 10:04:28;;;;;;;15.73;11.57;;;;;;;;;;4333890;33;20171;-79
2021/08/21 10:06:56;;;;;;;15.70;9.75;;;;;;;;;;4345351;33;20607;-80
2021/08/21 10:09:29;;;;;;;16.10;11.27;;;;;;;;;;4346814;33;20139;-79
2021/08/21 10:11:54;;;;;;;13.05;10.60;;;;;;;;;;4345637;33;20227;-79
2021/08/21 10:14:24;;;;;;;11.82;7.53;;;;;;;;;;4346852;33;20139;-81
2021/08/21 10:16:49;;;;;;;12.73;7.05;;;;;;;;;;4346229;33;20181;-79
2021/08/21 10:19:20;;;;;;;11.20;7.20;;;;;;;;;;4347953;33;20163;-81
2021/08/21 10:21:49;;;;;;;10.65;6.70;;;;;;;;;;4360827;32;20171;-82
2021/08/21 10:24:23;;;;;;;8.50;6.22;;;;;;;;;;4359946;32;20228;-79
2021/08/21 10:26:53;;;;;;;12.32;7.72;;;;;;;;;;4361339;32;20170;-79
2021/08/21 10:29:18;;;;;;;13.65;8.10;;;;;;;;;;4362489;32;20131;-78
2021/08/21 10:31:45;;;;;;;11.40;8.25;;;;;;;;;;4348391;33;20174;-81
2021/08/21 10:34:12;;;;;;;12.85;8.65;;;;;;;;;;4361342;32;20170;-80
2021/08/21 10:36:48;;;;;;;13.70;9.90;;;;;;;;;;4361228;32;20143;-79
2021/08/21 10:39:22;;;;;;;13.40;9.13;;;;;;;;;;4360896;32;20192;-78
2021/08/21 10:41:50;;;;;;;13.15;10.25;;;;;;;;;;4360546;32;20194;-82
2021/08/21 10:44:34;;;;;;;14.18;10.32;;;;;;;;;;4360045;32;20258;-79
2021/08/21 10:47:00;;;;;;;13.32;10.40;;;;;;;;;;4360128;32;20166;-80
2021/08/21 10:49:42;;;;;;;14.02;10.32;;;;;;;;;;4360955;32;20229;-79
2021/08/21 10:52:27;;;;;;;13.43;10.10;;;;;;;;;;4373217;32;20225;-79
2021/08/21 10:54:53;;;;;;;13.77;9.65;;;;;;;;;;4360393;32;20202;-81
2021/08/21 10:57:25;;;;;;;13.70;10.73;;;;;;;;;;4360336;32;20252;-79
2021/08/21 10:59:51;;;;;;;13.15;10.27;;;;;;;;;;4359701;32;20500;-81
2021/08/21 11:02:25;;;;;;;16.80;11.73;;;;;;;;;;4371939;32;20526;-79
2021/08/21 11:04:51;;;;;;;14.02;10.38;;;;;;;;;;4372553;32;20190;-80
2021/08/21 11:07:31;;;;;;;12.88;9.25;;;;;;;;;;4360395;32;20156;-79
2021/08/21 11:10:13;;;;;;;14.35;10.57;;;;;;;;;;4371909;32;20175;-80
2021/08/21 11:12:39;;;;;;;12.93;10.07;;;;;;;;;;4360166;32;20193;-80
2021/08/21 11:15:18;;;;;;;11.63;8.27;;;;;;;;;;4359577;32;20500;-80
2021/08/21 11:17:43;;;;;;;11.93;9.30;;;;;;;;;;4358902;32;20199;-80
2021/08/21 11:20:29;;;;;;;13.02;9.57;;;;;;;;;;4359679;32;20228;-81
2021/08/21 11:23:15;;;;;;;10.95;8.77;;;;;;;;;;4360417;32;20139;-81
2021/08/21 11:25:43;;;;;;;12.75;9.70;;;;;;;;;;4346083;32;20197;-81
2021/08/21 11:28:37;;;;;;;16.87;11.60;;;;;;;;;;4364802;32;20202;-79
2021/08/21 11:31:11;;;;;;;15.68;10.52;;;;;;;;;;4358965;33;20244;-76
2021/08/21 11:33:40;;;;;;;11.27;9.02;;;;;;;;;;4358274;32;20166;-81
2021/08/21 11:36:06;;;;;;;12.45;9.00;;;;;;;;;;4346474;33;20209;-80
2021/08/21 11:38:33;;;;;;;13.80;10.52;;;;;;;;;;4359229;32;20175;-78
2021/08/21 11:40:59;;;;;;;9.48;8.15;;;;;;;;;;4359221;32;20167;-81
2021/08/21 11:43:26;;;;;;;11.77;7.72;;;;;;;;;;4358719;33;20199;-75
2021/08/21 11:45:53;;;;;;;9.73;8.02;;;;;;;;;;4360115;32;20166;-80
2021/08/21 11:48:19;;;;;;;13.52;10.15;;;;;;;;;;4346822;33;20182;-77
2021/08/21 11:50:45;;;;;;;11.65;10.25;;;;;;;;;;4359870;32;20162;-80
2021/08/21 11:53:13;;;;;;;11.25;8.93;;;;;;;;;;4360171;33;20147;-78
2021/08/21 11:55:39;;;;;;;12.77;10.30;;;;;;;;;;4346378;33;20263;-80
2021/08/21 11:58:07;;;;;;;12.63;10.73;;;;;;;;;;4361049;32;20147;-79
2021/08/21 12:00:34;;;;;;;14.05;9.70;;;;;;;;;;4360189;32;20638;-79
2021/08/21 12:03:02;;;;;;;11.35;9.88;;;;;;;;;;4358861;32;20171;-80
2021/08/21 12:05:45;;;;;;;12.88;10.90;;;;;;;;;;4360201;32;20171;-76
2021/08/21 12:08:15;;;;;;;11.98;9.93;;;;;;;;;;4360674;32;20572;-80
2021/08/21 12:10:47;;;;;;;14.85;11.15;;;;;;;;;;4357780;32;20303;-80
2021/08/21 12:13:13;;;;;;;12.32;10.15;;;;;;;;;;4357997;32;21027;-80
2021/08/21 12:15:43;;;;;;;11.75;10.48;;;;;;;;;;4346610;33;20160;-80
2021/08/21 12:18:09;;;;;;;11.82;10.00;;;;;;;;;;4358169;33;20164;-81
2021/08/21 12:20:38;;;;;;;12.50;9.68;;;;;;;;;;4360159;32;20147;-81
2021/08/21 12:23:04;;;;;;;12.23;8.98;;;;;;;;;;4359045;32;20652;-80
2021/08/21 12:25:50;;;;;;;12.18;9.82;;;;;;;;;;4358701;33;20546;-80
2021/08/21 12:28:16;;;;;;;11.85;9.18;;;;;;;;;;4358686;32;20163;-80
2021/08/21 12:30:55;;;;;;;11.23;9.00;;;;;;;;;;4358490;32;20163;-79
2021/08/21 12:33:25;;;;;;;11.32;8.13;;;;;;;;;;4358866;32;20174;-80
2021/08/21 12:35:53;;;;;;;12.25;8.52;;;;;;;;;;4359305;33;20193;-83
2021/08/21 12:38:19;;;;;;;11.55;8.13;;;;;;;;;;4346208;33;20167;-80
2021/08/21 12:40:44;;;;;;;10.43;7.40;;;;;;;;;;4359230;33;20197;-80
2021/08/21 12:43:10;;;;;;;10.13;7.68;;;;;;;;;;4358800;33;20209;-80
2021/08/21 12:45:42;;;;;;;8.57;7.65;;;;;;;;;;4346196;33;20230;-80
2021/08/21 12:48:08;;;;;;;10.65;7.53;;;;;;;;;;4345172;33;20197;-79
2021/08/21 12:50:39;;;;;;;9.85;6.43;;;;;;;;;;4370711;32;20202;-81
2021/08/21 12:53:04;;;;;;;6.45;5.32;;;;;;;;;;4370870;32;20185;-82
2021/08/21 12:55:30;;;;;;;7.97;6.95;;;;;;;;;;4346288;33;20167;-80
2021/08/21 12:58:08;;;;;;;9.75;7.45;;;;;;;;;;4346064;33;20201;-79
2021/08/21 13:00:35;;;;;;;10.50;7.15;;;;;;;;;;4346432;33;20181;-81
2021/08/21 13:03:11;;;;;;;10.20;6.90;;;;;;;;;;4346754;33;20171;-81
2021/08/21 13:05:37;;;;;;;6.25;4.28;;;;;;;;;;4346026;33;20255;-77
2021/08/21 13:08:04;;;;;;;9.95;5.00;;;;;;;;;;4371293;32;20237;-80
2021/08/21 13:10:31;;;;;;;8.60;5.28;;;;;;;;;;4370701;32;20320;-80
2021/08/21 13:12:57;;;;;;;6.22;4.87;;;;;;;;;;4346315;33;20166;-79
2021/08/21 13:15:22;;;;;;;7.10;5.28;;;;;;;;;;4346156;33;20740;-80
2021/08/21 13:17:48;;;;;;;9.60;5.72;;;;;;;;;;4346004;33;20163;-80
2021/08/21 13:20:14;;;;;;;10.00;5.60;;;;;;;;;;4346342;33;20166;-80
2021/08/21 13:22:41;;;;;;;7.60;6.12;;;;;;;;;;4346770;33;20194;-79
2021/08/21 13:25:07;;;;;;;7.47;5.25;;;;;;;;;;4345606;33;20270;-79
2021/08/21 13:27:33;;;;;;;8.63;5.35;;;;;;;;;;4358242;33;20621;-79
2021/08/21 13:29:59;;;;;;;8.00;5.15;;;;;;;;;;4358431;32;20566;-82
2021/08/21 13:32:24;;;;;;;6.05;4.65;;;;;;;;;;4345703;33;20226;-80
2021/08/21 13:34:50;;;;;;;6.65;4.75;;;;;;;;;;4360550;33;20484;-77
2021/08/21 13:37:16;;;;;;;4.70;4.20;;;;;;;;;;4358644;33;20171;-80
2021/08/21 13:39:41;;;;;;;4.87;4.30;;;;;;;;;;4357370;33;20186;-80
2021/08/21 13:42:06;;;;;;;6.72;3.50;;;;;;;;;;4361369;32;20193;-77
2021/08/21 13:44:32;;;;;;;6.05;3.70;;;;;;;;;;4362934;32;20136;-79
2021/08/21 13:47:00;;;;;;;4.25;3.62;;;;;;;;;;4361627;32;20194;-81
2021/08/21 13:49:26;;;;;;;6.12;4.22;;;;;;;;;;4360570;32;20162;-82
2021/08/21 13:51:51;;;;;;;5.82;3.85;;;;;;;;;;4360398;33;20274;-79
2021/08/21 13:54:16;;;;;;;6.53;4.20;;;;;;;;;;4365265;32;20179;-81
2021/08/21 13:56:41;;;;;;;4.90;4.00;;;;;;;;;;4359962;32;20221;-80
2021/08/21 13:59:07;;;;;;;5.40;3.60;;;;;;;;;;4360793;32;20255;-81
2021/08/21 14:01:33;;;;;;;6.18;4.18;;;;;;;;;;4360477;32;20242;-81
2021/08/21 14:03:59;;;;;;;5.78;3.40;;;;;;;;;;4360820;32;20159;-79
2021/08/21 14:06:24;;;;;;;5.40;4.60;;;;;;;;;;4360369;32;20187;-82
2021/08/21 14:08:50;;;;;;;4.53;3.60;;;;;;;;;;4360975;33;20166;-81
2021/08/21 14:11:15;;;;;;;5.57;3.33;;;;;;;;;;4360690;33;20630;-82
2021/08/21 14:13:40;;;;;;;5.50;4.68;;;;;;;;;;4372823;32;20247;-79
2021/08/21 14:16:06;;;;;;;5.57;4.30;;;;;;;;;;4361312;32;20171;-82
2021/08/21 14:18:31;;;;;;;4.15;3.47;;;;;;;;;;4360279;33;20171;-81
2021/08/21 14:20:56;;;;;;;4.37;3.62;;;;;;;;;;4360999;32;20159;-80
2021/08/21 14:23:22;;;;;;;6.28;3.65;;;;;;;;;;4360293;33;20163;-82
2021/08/21 14:25:48;;;;;;;5.60;3.65;;;;;;;;;;4360620;32;20168;-81
2021/08/21 14:28:13;;;;;;;4.82;3.33;;;;;;;;;;4333946;33;20564;-81
2021/08/21 14:30:38;;;;;;;6.47;4.35;;;;;;;;;;4333285;33;20174;-82
2021/08/21 14:33:11;;;;;;;7.97;4.22;;;;;;;;;;4346357;33;20171;-80
2021/08/21 14:35:36;;;;;;;6.82;4.12;;;;;;;;;;4334037;33;20159;-82
2021/08/21 14:38:02;;;;;;;6.12;3.95;;;;;;;;;;4345869;33;20226;-81
2021/08/21 14:40:28;;;;;;;6.07;3.67;;;;;;;;;;4333184;33;20623;-78
2021/08/21 14:42:56;;;;;;;5.07;3.78;;;;;;;;;;4332996;33;20628;-83
2021/08/21 14:45:24;;;;;;;5.60;3.90;;;;;;;;;;4332979;33;20163;-83
2021/08/21 14:47:50;;;;;;;6.43;4.05;;;;;;;;;;4333528;33;20200;-82
2021/08/21 14:50:15;;;;;;;4.90;3.53;;;;;;;;;;4332818;33;20262;-82
2021/08/21 14:52:40;;;;;;;6.72;3.95;;;;;;;;;;4332619;33;20163;-83
2021/08/21 14:55:06;;;;;;;6.97;3.83;;;;;;;;;;4333521;33;20186;-83
2021/08/21 14:57:31;;;;;;;4.85;3.70;;;;;;;;;;4333027;33;20183;-81
2021/08/21 14:59:57;;;;;;;6.03;3.92;;;;;;;;;;4334390;33;20163;-80
2021/08/21 15:02:22;;;;;;;5.57;4.20;;;;;;;;;;4333297;33;20159;-83
2021/08/21 15:04:50;;;;;;;6.72;4.18;;;;;;;;;;4346600;33;20201;-83
2021/08/21 15:07:16;;;;;;;6.97;4.07;;;;;;;;;;4333355;33;20193;-82
2021/08/21 15:09:41;;;;;;;4.80;4.00;;;;;;;;;;4333747;33;20168;-83
2021/08/21 15:12:07;;;;;;;5.18;4.15;;;;;;;;;;4332862;33;20159;-83
2021/08/21 15:14:33;;;;;;;5.70;3.67;;;;;;;;;;4333321;33;20209;-83
2021/08/21 15:16:59;;;;;;;4.75;3.90;;;;;;;;;;4345356;32;20582;-82
2021/08/21 15:19:25;;;;;;;7.75;3.90;;;;;;;;;;4332937;33;20160;-83
2021/08/21 15:21:50;;;;;;;4.37;3.37;;;;;;;;;;4332647;33;20175;-83
2021/08/21 15:24:15;;;;;;;6.23;3.93;;;;;;;;;;4333104;33;20168;-81
2021/08/21 15:26:42;;;;;;;7.00;5.45;;;;;;;;;;4346517;33;20662;-81
2021/08/21 15:29:07;;;;;;;7.30;5.00;;;;;;;;;;4346205;33;20170;-82
2021/08/21 15:31:36;;;;;;;5.50;4.10;;;;;;;;;;4332554;33;20262;-80
2021/08/21 15:34:02;;;;;;;4.95;3.90;;;;;;;;;;4357089;32;20225;-82
2021/08/21 15:36:28;;;;;;;4.65;4.15;;;;;;;;;;4346425;33;20148;-82
2021/08/21 15:38:55;;;;;;;7.07;3.92;;;;;;;;;;4356940;32;20229;-82
2021/08/21 15:41:24;;;;;;;7.28;3.80;;;;;;;;;;4346685;33;20534;-82
2021/08/21 15:43:49;;;;;;;5.62;3.80;;;;;;;;;;4332236;33;20171;-82
2021/08/21 15:46:14;;;;;;;5.37;3.80;;;;;;;;;;4332501;33;20250;-80
2021/08/21 15:48:40;;;;;;;6.27;3.73;;;;;;;;;;4332802;33;20254;-80
2021/08/21 15:51:05;;;;;;;8.27;3.33;;;;;;;;;;4332604;33;20280;-80
2021/08/21 15:53:31;;;;;;;4.12;3.35;;;;;;;;;;4332460;33;20510;-80
2021/08/21 15:55:56;;;;;;;8.43;3.90;;;;;;;;;;4332424;33;20189;-80